This is the latest recevied weather packets stored in our database for station/object KB2M. If no packets are shown the sender has not sent any weather packets the latest 10 day(s).
| Time | Temp. | Humidity | Pressure | Rain* | Wind** | Luminosity | Snow |
|---|---|---|---|---|---|---|---|
| 1787856788 | 29.44° C | 78% | 1017.2 hPa | 0 mm | - | - | - |
| 1787856158 | 29.44° C | 76% | 1017.2 hPa | 0 mm | - | - | - |
| 1787855558 | 29.44° C | 78% | 1016.9 hPa | 0 mm | - | - | - |
| 1787854958 | 29.44° C | 78% | 1016.9 hPa | 0 mm | - | - | - |
| 1787854328 | 30° C | 77% | 1017.2 hPa | 0 mm | - | - | - |
| 1787853698 | 31.11° C | 73% | 1017.2 hPa | 0 mm | - | - | - |
| 1787853098 | 32.22° C | 65% | 1017.6 hPa | 0 mm | - | - | - |
| 1787852498 | 32.22° C | 58% | 1017.6 hPa | 0 mm | - | - | - |
| 1787851868 | 31.67° C | 60% | 1017.9 hPa | 0 mm | - | - | - |
| 1787851238 | 31.11° C | 61% | 1017.9 hPa | 0 mm | - | - | - |
| 1787850638 | 31.67° C | 60% | 1018.2 hPa | 0 mm | - | - | - |
| 1787850008 | 32.22° C | 60% | 1018.2 hPa | 0 mm | - | - | - |
| 1787849378 | 31.67° C | 61% | 1018.2 hPa | 0 mm | - | - | - |
| 1787848778 | 31.11° C | 62% | 1018.2 hPa | 0 mm | - | - | - |
| 1787848148 | 31.11° C | 63% | 1018.2 hPa | 0 mm | - | - | - |
| 1787847518 | 31.11° C | 63% | 1018.6 hPa | 0 mm | - | - | - |
| 1787846918 | 30.56° C | 66% | 1018.6 hPa | 0 mm | - | - | - |
| 1787846318 | 31.11° C | 66% | 1018.6 hPa | 0 mm | - | - | - |
| 1787845718 | 30° C | 67% | 1018.9 hPa | 0 mm | - | - | - |
| 1787845088 | 30° C | 70% | 1018.6 hPa | 0 mm | - | - | - |
| 1787844458 | 29.44° C | 72% | 1018.9 hPa | 0 mm | - | - | - |
| 1787843858 | 29.44° C | 72% | 1018.6 hPa | 0 mm | - | - | - |
| 1787843228 | 28.89° C | 74% | 1018.6 hPa | 0 mm | - | - | - |
| 1787842598 | 28.89° C | 75% | 1018.9 hPa | 0 mm | - | - | - |
| 1787841998 | 28.89° C | 76% | 1018.6 hPa | 0 mm | - | - | - |
* Rain latest hour (hover to see other rain measurements)
** Current wind speed in m/s (hover to see current wind gust speed)